Time;durP1;ratioP1;P1;durP2;ratioP2;P2;SDS_P1;SDS_P2;PMS_P1;PMS_P2;Temp;Humidity;BMP_temperature;BMP_pressure;BME280_temperature;BME280_humidity;BME280_pressure;Samples;Min_cycle;Max_cycle;Signal;HPM_P1;HPM_P2
2022/09/27 00:00:15;;;;;;;;;;;8.00;99.90;;;;;;5112161;28;20245;-56
2022/09/27 00:02:44;;;;;;;;;;;7.90;99.90;;;;;;5113036;27;20383;-58
2022/09/27 00:05:11;;;;;;;;;;;7.90;99.90;;;;;;5117601;27;19930;-57
2022/09/27 00:07:38;;;;;;;;;;;7.90;99.90;;;;;;5092840;28;19924;-58
2022/09/27 00:10:07;;;;;;;;;;;7.90;99.90;;;;;;5108868;28;19933;-58
2022/09/27 00:12:35;;;;;;;;;;;8.00;99.90;;;;;;5110056;28;19935;-57
2022/09/27 00:15:03;;;;;;;;;;;8.00;99.90;;;;;;5110676;28;19931;-56
2022/09/27 00:17:31;;;;;;;;;;;8.00;99.90;;;;;;5110193;28;19924;-56
2022/09/27 00:19:58;;;;;;;;;;;8.00;99.90;;;;;;5074148;28;20394;-57
2022/09/27 00:22:26;;;;;;;;;;;7.90;99.90;;;;;;5091528;28;19924;-58
2022/09/27 00:24:53;;;;;;;;;;;7.90;99.90;;;;;;5096202;27;19928;-55
2022/09/27 00:27:21;;;;;;;;;;;7.90;99.90;;;;;;5132339;27;19923;-58
2022/09/27 00:29:48;;;;;;;;;;;7.90;99.90;;;;;;5111519;28;19973;-56
2022/09/27 00:32:15;;;;;;;;;;;7.80;99.90;;;;;;5110541;27;20432;-56
2022/09/27 00:34:43;;;;;;;;;;;7.80;99.90;;;;;;5104114;28;20383;-55
2022/09/27 00:37:11;;;;;;;;;;;7.80;99.90;;;;;;5091951;28;19924;-58
2022/09/27 00:39:38;;;;;;;;;;;7.80;99.90;;;;;;5111128;28;20425;-56
2022/09/27 00:42:10;;;;;;;;;;;7.90;99.90;;;;;;5093191;28;19924;-58
2022/09/27 00:44:38;;;;;;;;;;;7.90;99.90;;;;;;5111172;28;19946;-58
2022/09/27 00:47:08;;;;;;;;;;;7.90;99.90;;;;;;5092727;28;19924;-58
2022/09/27 00:49:39;;;;;;;;;;;7.90;99.90;;;;;;5107794;28;20405;-57
2022/09/27 00:52:09;;;;;;;;;;;7.90;99.90;;;;;;5111050;28;19938;-55
2022/09/27 00:54:39;;;;;;;;;;;7.90;99.90;;;;;;5109921;27;19928;-55
2022/09/27 00:57:07;;;;;;;;;;;7.90;99.90;;;;;;5111200;28;19931;-55
2022/09/27 00:59:36;;;;;;;;;;;7.80;99.90;;;;;;5110530;28;19970;-54
2022/09/27 01:02:04;;;;;;;;;;;7.80;99.90;;;;;;5106726;27;20276;-55
2022/09/27 01:04:32;;;;;;;;;;;7.70;99.90;;;;;;5086202;28;20285;-56
2022/09/27 01:06:59;;;;;;;;;;;7.70;99.90;;;;;;5108419;28;20295;-56
2022/09/27 01:09:27;;;;;;;;;;;7.70;99.90;;;;;;5109482;28;20383;-55
2022/09/27 01:12:01;;;;;;;;;;;7.70;99.90;;;;;;5108496;28;19931;-56
2022/09/27 01:14:40;;;;;;;;;;;7.60;99.90;;;;;;5105356;27;20435;-57
2022/09/27 01:17:14;;;;;;;;;;;7.60;99.90;;;;;;5112940;27;19930;-55
2022/09/27 01:19:41;;;;;;;;;;;7.60;99.90;;;;;;5108354;27;19924;-56
2022/09/27 01:22:12;;;;;;;;;;;7.60;99.90;;;;;;5091883;28;19923;-57
2022/09/27 01:25:04;;;;;;;;;;;7.60;99.90;;;;;;5111163;27;19924;-56
2022/09/27 01:27:32;;;;;;;;;;;7.50;99.90;;;;;;5092080;28;19950;-55
2022/09/27 01:30:09;;;;;;;;;;;7.50;99.90;;;;;;5091808;28;19924;-55
2022/09/27 01:32:53;;;;;;;;;;;7.50;99.90;;;;;;5091053;28;19928;-55
2022/09/27 01:35:32;;;;;;;;;;;7.50;99.90;;;;;;5113493;28;19923;-55
2022/09/27 01:38:18;;;;;;;;;;;7.50;99.90;;;;;;5094193;28;19923;-55
2022/09/27 01:40:48;;;;;;;;;;;7.50;99.90;;;;;;5095253;28;19924;-55
2022/09/27 01:43:42;;;;;;;;;;;7.60;99.90;;;;;;5109077;28;19923;-55
2022/09/27 01:46:11;;;;;;;;;;;7.60;99.90;;;;;;5093238;28;20390;-55
2022/09/27 01:49:09;;;;;;;;;;;7.60;99.90;;;;;;5112160;28;19928;-57
2022/09/27 01:51:48;;;;;;;;;;;7.70;99.90;;;;;;5092843;28;19951;-56
2022/09/27 01:54:20;;;;;;;;;;;7.70;99.90;;;;;;5091706;28;19931;-55
2022/09/27 01:56:51;;;;;;;;;;;7.70;99.90;;;;;;5092783;28;19924;-58
2022/09/27 01:59:28;;;;;;;;;;;7.80;99.90;;;;;;5093435;28;19935;-57
2022/09/27 02:02:23;;;;;;;;;;;7.80;99.90;;;;;;5081289;28;19947;-57
2022/09/27 02:05:16;;;;;;;;;;;7.90;99.90;;;;;;5072199;28;19924;-57
2022/09/27 02:07:50;;;;;;;;;;;7.90;99.90;;;;;;5074548;28;19931;-56
2022/09/27 02:10:24;;;;;;;;;;;8.00;99.90;;;;;;5087267;28;20384;-57
2022/09/27 02:13:13;;;;;;;;;;;8.00;99.90;;;;;;5092318;28;19931;-58
2022/09/27 02:16:04;;;;;;;;;;;8.00;99.90;;;;;;5074494;28;20489;-58
2022/09/27 02:18:48;;;;;;;;;;;8.00;99.90;;;;;;5074308;28;19931;-59
2022/09/27 02:21:17;;;;;;;;;;;8.10;99.90;;;;;;5074319;28;19924;-57
2022/09/27 02:23:47;;;;;;;;;;;8.10;99.90;;;;;;5074350;28;19935;-58
2022/09/27 02:26:34;;;;;;;;;;;8.10;99.90;;;;;;5074173;28;19924;-58
2022/09/27 02:29:23;;;;;;;;;;;8.10;99.90;;;;;;5074379;28;19924;-58
2022/09/27 02:31:52;;;;;;;;;;;8.10;99.90;;;;;;5096245;27;19923;-58
2022/09/27 02:34:26;;;;;;;;;;;8.10;99.90;;;;;;5114041;27;19930;-58
2022/09/27 02:36:54;;;;;;;;;;;8.20;99.90;;;;;;5114801;27;19927;-57
2022/09/27 02:39:21;;;;;;;;;;;8.20;99.90;;;;;;5114794;28;19923;-58
2022/09/27 02:41:58;;;;;;;;;;;8.20;99.90;;;;;;5114753;28;20290;-59
2022/09/27 02:44:27;;;;;;;;;;;8.20;99.90;;;;;;5132897;27;19923;-58
2022/09/27 02:47:01;;;;;;;;;;;8.20;99.90;;;;;;5114705;28;19923;-57
2022/09/27 02:49:42;;;;;;;;;;;8.20;99.90;;;;;;5114678;28;19923;-58
2022/09/27 02:52:50;;;;;;;;;;;8.20;99.90;;;;;;5100907;28;19977;-58
2022/09/27 02:55:23;;;;;;;;;;;8.20;99.90;;;;;;5114615;28;19924;-58
2022/09/27 02:58:07;;;;;;;;;;;8.20;99.90;;;;;;5114606;28;19931;-61
2022/09/27 03:00:56;;;;;;;;;;;8.20;99.90;;;;;;5114557;28;20310;-60
2022/09/27 03:03:48;;;;;;;;;;;8.10;99.90;;;;;;5132935;28;19930;-59
2022/09/27 03:06:17;;;;;;;;;;;8.10;99.90;;;;;;5132742;28;20534;-61
2022/09/27 03:08:44;;;;;;;;;;;8.10;99.90;;;;;;5097850;28;19923;-60
2022/09/27 03:11:12;;;;;;;;;;;8.10;99.90;;;;;;5123602;28;19924;-61
2022/09/27 03:13:39;;;;;;;;;;;8.00;99.90;;;;;;5093873;28;19931;-60
2022/09/27 03:16:27;;;;;;;;;;;7.90;99.90;;;;;;5080189;28;19931;-61
2022/09/27 03:19:08;;;;;;;;;;;7.90;99.90;;;;;;5093883;28;19924;-60
2022/09/27 03:21:54;;;;;;;;;;;7.90;99.90;;;;;;5112100;28;19928;-59
2022/09/27 03:24:23;;;;;;;;;;;7.90;99.90;;;;;;5093877;28;20589;-58
2022/09/27 03:26:50;;;;;;;;;;;7.90;99.90;;;;;;5093935;28;20276;-57
2022/09/27 03:29:17;;;;;;;;;;;7.90;99.90;;;;;;5112138;28;19924;-60
2022/09/27 03:31:52;;;;;;;;;;;7.90;99.90;;;;;;5104567;28;20446;-59
2022/09/27 03:34:40;;;;;;;;;;;7.90;99.90;;;;;;5131941;28;19924;-58
2022/09/27 03:37:07;;;;;;;;;;;7.90;99.90;;;;;;5132541;28;19930;-58
2022/09/27 03:39:34;;;;;;;;;;;7.90;99.90;;;;;;5114335;28;19931;-57
2022/09/27 03:42:02;;;;;;;;;;;7.90;99.90;;;;;;5114261;28;20382;-57
2022/09/27 03:44:31;;;;;;;;;;;7.90;99.90;;;;;;5115149;27;19923;-58
2022/09/27 03:46:59;;;;;;;;;;;7.90;99.90;;;;;;5117780;27;19931;-58
2022/09/27 03:49:26;;;;;;;;;;;7.90;99.90;;;;;;5136388;27;19923;-58
2022/09/27 03:51:53;;;;;;;;;;;7.90;99.90;;;;;;5136018;27;19927;-61
2022/09/27 03:54:21;;;;;;;;;;;7.80;99.90;;;;;;5118014;27;19949;-61
2022/09/27 03:56:48;;;;;;;;;;;7.80;99.90;;;;;;5117681;27;19931;-58
2022/09/27 03:59:17;;;;;;;;;;;7.80;99.90;;;;;;5117852;27;20290;-55
2022/09/27 04:02:17;;;;;;;;;;;7.70;99.90;;;;;;5061894;27;19924;-55
2022/09/27 04:05:23;;;;;;;;;;;7.80;99.90;;;;;;5051728;28;19925;-56
2022/09/27 04:08:12;;;;;;;;;;;7.80;99.90;;;;;;5048982;28;19933;-55
2022/09/27 04:10:41;;;;;;;;;;;7.80;99.90;;;;;;5084957;28;20304;-57
2022/09/27 04:13:08;;;;;;;;;;;7.80;99.90;;;;;;5080279;28;19924;-55
2022/09/27 04:15:42;;;;;;;;;;;7.80;99.90;;;;;;5096333;28;19931;-55
2022/09/27 04:18:24;;;;;;;;;;;7.80;99.90;;;;;;5115134;28;19924;-54
2022/09/27 04:21:10;;;;;;;;;;;7.80;99.90;;;;;;5115195;28;19923;-55
2022/09/27 04:23:43;;;;;;;;;;;7.80;99.90;;;;;;5096772;28;20290;-55
2022/09/27 04:26:13;;;;;;;;;;;7.90;99.90;;;;;;5096743;28;19928;-57
2022/09/27 04:28:50;;;;;;;;;;;7.80;99.90;;;;;;5096786;28;20294;-58
2022/09/27 04:31:21;;;;;;;;;;;7.80;99.90;;;;;;5103401;27;20299;-58
2022/09/27 04:34:03;;;;;;;;;;;7.80;99.90;;;;;;5116881;27;20338;-56
2022/09/27 04:36:33;;;;;;;;;;;7.80;99.90;;;;;;5116966;27;19923;-58
2022/09/27 04:39:05;;;;;;;;;;;7.90;99.90;;;;;;5100649;27;20383;-60
2022/09/27 04:41:36;;;;;;;;;;;7.90;99.90;;;;;;5116904;27;19923;-58
2022/09/27 04:44:05;;;;;;;;;;;7.90;99.90;;;;;;5116900;27;19930;-58
2022/09/27 04:46:33;;;;;;;;;;;7.90;99.90;;;;;;5134971;27;19923;-58
2022/09/27 04:49:02;;;;;;;;;;;7.90;99.90;;;;;;5061661;28;19927;-61
2022/09/27 04:51:31;;;;;;;;;;;8.00;99.90;;;;;;5072681;28;19924;-60
2022/09/27 04:54:00;;;;;;;;;;;8.00;99.90;;;;;;5091044;28;20284;-61
2022/09/27 04:56:34;;;;;;;;;;;8.00;99.90;;;;;;5071682;28;19924;-60
2022/09/27 04:59:03;;;;;;;;;;;8.00;99.90;;;;;;5106209;27;20382;-57
2022/09/27 05:01:37;;;;;;;;;;;8.50;99.90;;;;;;5111280;27;19924;-57
2022/09/27 05:04:34;;;;;;;;;;;8.10;99.90;;;;;;5065910;28;19936;-56
2022/09/27 05:07:04;;;;;;;;;;;8.10;99.90;;;;;;5101414;28;20387;-54
2022/09/27 05:09:39;;;;;;;;;;;8.10;99.90;;;;;;5091617;28;19931;-55
2022/09/27 05:12:07;;;;;;;;;;;8.10;99.90;;;;;;5089805;28;20399;-56
2022/09/27 05:14:45;;;;;;;;;;;8.10;99.90;;;;;;5107177;27;20214;-61
2022/09/27 05:17:15;;;;;;;;;;;8.10;99.90;;;;;;5128583;27;19923;-54
2022/09/27 05:20:01;;;;;;;;;;;8.10;99.90;;;;;;5110564;28;19924;-58
2022/09/27 05:22:42;;;;;;;;;;;8.10;99.90;;;;;;5093187;27;19923;-58
2022/09/27 05:25:10;;;;;;;;;;;8.10;99.90;;;;;;5113042;27;19930;-57
2022/09/27 05:27:38;;;;;;;;;;;8.20;99.90;;;;;;5125826;27;19924;-54
2022/09/27 05:30:07;;;;;;;;;;;8.20;99.90;;;;;;5092227;28;19924;-55
2022/09/27 05:32:54;;;;;;;;;;;8.20;99.90;;;;;;5125684;27;19928;-59
2022/09/27 05:35:46;;;;;;;;;;;8.20;99.90;;;;;;5051091;28;19928;-60
2022/09/27 05:38:14;;;;;;;;;;;8.20;99.90;;;;;;5090565;28;19997;-60
2022/09/27 05:40:49;;;;;;;;;;;8.20;99.90;;;;;;5091990;28;19924;-57
2022/09/27 05:43:17;;;;;;;;;;;8.20;99.90;;;;;;5115935;27;19934;-57
2022/09/27 05:45:45;;;;;;;;;;;8.30;99.90;;;;;;5112053;27;19931;-59
2022/09/27 05:48:15;;;;;;;;;;;8.30;99.90;;;;;;5097339;28;19931;-55
2022/09/27 05:50:53;;;;;;;;;;;8.40;99.90;;;;;;5071356;28;19924;-58
2022/09/27 05:53:20;;;;;;;;;;;8.30;99.90;;;;;;5083711;27;19923;-57
2022/09/27 05:55:48;;;;;;;;;;;8.40;99.90;;;;;;5112161;27;19931;-57
2022/09/27 05:58:22;;;;;;;;;;;8.40;99.90;;;;;;5101116;28;20419;-57
2022/09/27 06:01:01;;;;;;;;;;;8.40;99.90;;;;;;5094046;27;19930;-58
2022/09/27 06:04:01;;;;;;;;;;;8.40;99.90;;;;;;5104959;27;20421;-57
2022/09/27 06:06:48;;;;;;;;;;;8.40;99.90;;;;;;5087923;28;19924;-59
2022/09/27 06:09:16;;;;;;;;;;;8.40;99.90;;;;;;5089184;28;19934;-56
2022/09/27 06:11:45;;;;;;;;;;;8.40;99.90;;;;;;5091150;28;19924;-60
2022/09/27 06:14:15;;;;;;;;;;;8.40;99.90;;;;;;5111811;27;19923;-62
2022/09/27 06:16:53;;;;;;;;;;;8.40;99.90;;;;;;5088199;28;19958;-59
2022/09/27 06:19:24;;;;;;;;;;;8.40;99.90;;;;;;5077892;28;19924;-61
2022/09/27 06:21:52;;;;;;;;;;;8.40;99.90;;;;;;5071018;28;19924;-60
2022/09/27 06:24:20;;;;;;;;;;;8.40;99.90;;;;;;5099365;27;19923;-61
2022/09/27 06:26:47;;;;;;;;;;;8.40;99.90;;;;;;5111478;27;19928;-60
2022/09/27 06:29:26;;;;;;;;;;;8.40;99.90;;;;;;5091550;28;19924;-57
2022/09/27 06:32:00;;;;;;;;;;;8.40;99.90;;;;;;5103093;27;19931;-59
2022/09/27 06:34:47;;;;;;;;;;;8.40;99.90;;;;;;5083670;28;19927;-56
2022/09/27 06:37:15;;;;;;;;;;;8.40;99.90;;;;;;5090235;28;19924;-55
2022/09/27 06:39:42;;;;;;;;;;;8.40;99.90;;;;;;5109229;28;19923;-56
2022/09/27 06:42:29;;;;;;;;;;;8.40;99.90;;;;;;5097611;28;19990;-58
2022/09/27 06:45:20;;;;;;;;;;;8.50;99.90;;;;;;5078187;28;19924;-57
2022/09/27 06:48:14;;;;;;;;;;;8.50;99.90;;;;;;5073632;28;20655;-56
2022/09/27 06:50:56;;;;;;;;;;;8.50;99.90;;;;;;5091496;28;20331;-56
2022/09/27 06:53:24;;;;;;;;;;;8.60;99.90;;;;;;5091251;28;19923;-56
2022/09/27 06:55:52;;;;;;;;;;;8.50;99.90;;;;;;5077694;28;19931;-56
2022/09/27 07:01:44;;;;;;;;;;;8.60;99.90;;;;;;5046141;28;19925;-58
2022/09/27 07:04:30;;;;;;;;;;;8.70;99.90;;;;;;5091736;28;19924;-58
2022/09/27 07:07:24;;;;;;;;;;;8.70;99.90;;;;;;5101206;28;20330;-61
2022/09/27 07:09:52;;;;;;;;;;;8.70;99.90;;;;;;5087436;28;19946;-61
2022/09/27 07:12:22;;;;;;;;;;;8.70;99.90;;;;;;5091913;28;19931;-60
2022/09/27 07:14:49;;;;;;;;;;;8.70;99.90;;;;;;5121078;28;19924;-60
2022/09/27 07:17:18;;;;;;;;;;;8.80;99.90;;;;;;5093445;28;20260;-60
2022/09/27 07:19:48;;;;;;;;;;;8.80;99.90;;;;;;5101067;28;20555;-56
2022/09/27 07:22:15;;;;;;;;;;;8.80;99.90;;;;;;5103064;28;20417;-58
2022/09/27 07:24:46;;;;;;;;;;;8.90;99.90;;;;;;5087846;28;19931;-59
2022/09/27 07:27:14;;;;;;;;;;;8.90;99.90;;;;;;5096590;28;19931;-55
2022/09/27 07:29:42;;;;;;;;;;;8.90;99.90;;;;;;5101502;28;19924;-56
2022/09/27 07:32:10;;;;;;;;;;;8.90;99.90;;;;;;5115180;27;19931;-59
2022/09/27 07:34:38;;;;;;;;;;;8.90;99.90;;;;;;5081903;28;19935;-60
2022/09/27 07:37:06;;;;;;;;;;;8.90;99.90;;;;;;5074100;28;19924;-60
2022/09/27 07:39:38;;;;;;;;;;;8.90;99.90;;;;;;5074250;28;19932;-59
2022/09/27 07:42:06;;;;;;;;;;;9.00;99.90;;;;;;5056697;28;19939;-60
2022/09/27 07:44:36;;;;;;;;;;;9.10;99.90;;;;;;5102256;27;20433;-60
2022/09/27 07:47:23;;;;;;;;;;;9.10;99.90;;;;;;5127097;27;19930;-59
2022/09/27 07:50:27;;;;;;;;;;;9.10;99.90;;;;;;5016799;28;19925;-59
2022/09/27 07:53:04;;;;;;;;;;;9.20;99.90;;;;;;5067339;27;20294;-60
2022/09/27 07:55:41;;;;;;;;;;;9.20;99.90;;;;;;5132919;27;20414;-58
2022/09/27 07:58:16;;;;;;;;;;;9.20;99.90;;;;;;5132468;27;19958;-58
2022/09/27 08:00:44;;;;;;;;;;;9.20;99.90;;;;;;5114296;27;19927;-60
2022/09/27 08:03:16;;;;;;;;;;;9.30;99.90;;;;;;5114065;27;20326;-61
2022/09/27 08:05:46;;;;;;;;;;;9.30;99.90;;;;;;5081525;28;20331;-61
2022/09/27 08:08:15;;;;;;;;;;;9.40;99.90;;;;;;5075484;27;19923;-59
2022/09/27 08:10:45;;;;;;;;;;;9.40;99.90;;;;;;5114088;27;19923;-72
2022/09/27 08:13:14;;;;;;;;;;;9.40;99.90;;;;;;5113921;27;19946;-59
2022/09/27 08:15:41;;;;;;;;;;;9.40;99.90;;;;;;5132218;27;19923;-59
2022/09/27 08:18:09;;;;;;;;;;;9.40;99.90;;;;;;5101799;28;19928;-60
2022/09/27 08:20:59;;;;;;;;;;;9.40;99.90;;;;;;5073493;28;19928;-60
2022/09/27 08:23:50;;;;;;;;;;;9.30;99.90;;;;;;5091817;27;19931;-60
2022/09/27 08:26:37;;;;;;;;;;;9.30;99.90;;;;;;5092689;27;19930;-59
2022/09/27 08:29:17;;;;;;;;;;;9.30;99.90;;;;;;5095392;28;20402;-57
2022/09/27 08:31:51;;;;;;;;;;;9.20;99.90;;;;;;5102649;27;19924;-57
2022/09/27 08:34:19;;;;;;;;;;;9.20;99.90;;;;;;5109195;27;19923;-62
2022/09/27 08:36:46;;;;;;;;;;;9.10;99.90;;;;;;5073016;28;19924;-61
2022/09/27 08:39:14;;;;;;;;;;;9.10;99.90;;;;;;5090289;28;19935;-59
2022/09/27 08:41:49;;;;;;;;;;;9.10;99.90;;;;;;5093109;28;19943;-58
2022/09/27 08:44:26;;;;;;;;;;;9.10;99.90;;;;;;5092610;28;20383;-60
2022/09/27 08:47:07;;;;;;;;;;;9.10;99.90;;;;;;5094190;28;19950;-57
2022/09/27 08:49:37;;;;;;;;;;;9.10;99.90;;;;;;5089992;28;19928;-59
2022/09/27 08:52:06;;;;;;;;;;;9.10;99.90;;;;;;5073046;28;19935;-61
2022/09/27 08:54:34;;;;;;;;;;;9.10;99.90;;;;;;5085904;28;19928;-61
2022/09/27 08:57:04;;;;;;;;;;;9.10;99.90;;;;;;5089884;28;20120;-62
2022/09/27 08:59:39;;;;;;;;;;;9.20;99.90;;;;;;5089073;28;19931;-56
2022/09/27 09:02:18;;;;;;;;;;;9.10;99.90;;;;;;5102368;27;19923;-61
2022/09/27 09:04:50;;;;;;;;;;;9.20;99.90;;;;;;5120970;27;19931;-62
2022/09/27 09:07:37;;;;;;;;;;;9.20;99.90;;;;;;5073833;28;19924;-59
2022/09/27 09:13:23;;;;;;;;;;;9.30;99.90;;;;;;5107577;28;19934;-58
2022/09/27 09:16:02;;;;;;;;;;;9.30;99.90;;;;;;5089807;28;19924;-59
2022/09/27 09:18:53;;;;;;;;;;;9.40;99.90;;;;;;5089826;28;19924;-56
2022/09/27 09:21:51;;;;;;;;;;;9.40;99.90;;;;;;5075311;28;19924;-58
2022/09/27 09:24:34;;;;;;;;;;;9.50;99.90;;;;;;5113305;27;20374;-56
2022/09/27 09:27:20;;;;;;;;;;;9.70;99.90;;;;;;5109395;27;19927;-56
2022/09/27 09:29:54;;;;;;;;;;;9.80;99.90;;;;;;5086910;28;19935;-59
2022/09/27 09:32:28;;;;;;;;;;;10.10;99.90;;;;;;5100236;27;19923;-61
2022/09/27 09:34:58;;;;;;;;;;;10.30;99.90;;;;;;5103658;28;19928;-62
2022/09/27 09:37:26;;;;;;;;;;;10.40;99.90;;;;;;5070761;28;19928;-61
2022/09/27 09:40:00;;;;;;;;;;;10.50;99.90;;;;;;5090790;28;19934;-61
2022/09/27 09:42:37;;;;;;;;;;;10.50;99.90;;;;;;5091489;28;19923;-61
2022/09/27 09:45:18;;;;;;;;;;;10.60;99.90;;;;;;5110678;27;19924;-61
2022/09/27 09:47:53;;;;;;;;;;;10.60;99.90;;;;;;5105036;28;19924;-60
2022/09/27 09:50:47;;;;;;;;;;;10.80;99.90;;;;;;5083069;28;20429;-60
2022/09/27 09:53:19;;;;;;;;;;;10.90;99.90;;;;;;5055862;28;19927;-63
2022/09/27 09:55:52;;;;;;;;;;;11.00;99.90;;;;;;5109874;28;19924;-62
2022/09/27 09:58:23;;;;;;;;;;;11.20;99.90;;;;;;5091472;28;19928;-62
2022/09/27 10:00:59;;;;;;;;;;;11.20;99.90;;;;;;5094722;27;19947;-62
2022/09/27 10:03:27;;;;;;;;;;;11.30;99.90;;;;;;5086318;28;20398;-61
2022/09/27 10:05:55;;;;;;;;;;;10.20;99.90;;;;;;5071366;28;19924;-62
2022/09/27 10:08:23;;;;;;;;;;;11.40;99.90;;;;;;5099304;28;19923;-61
2022/09/27 10:11:34;;;;;;;;;;;11.30;99.90;;;;;;5028503;28;19940;-61
2022/09/27 10:14:13;;;;;;;;;;;11.20;99.90;;;;;;5113927;27;20302;-62
2022/09/27 10:16:52;;;;;;;;;;;11.10;99.90;;;;;;5111901;27;19931;-62
2022/09/27 10:19:29;;;;;;;;;;;11.10;99.90;;;;;;5092916;28;19935;-62
2022/09/27 10:22:00;;;;;;;;;;;11.00;99.90;;;;;;5058358;28;19924;-62
2022/09/27 10:24:41;;;;;;;;;;;11.00;99.90;;;;;;5099260;27;19924;-61
2022/09/27 10:27:20;;;;;;;;;;;11.00;99.90;;;;;;5128493;27;19927;-62
2022/09/27 10:29:54;;;;;;;;;;;11.00;99.90;;;;;;5109499;28;19935;-61
2022/09/27 10:32:26;;;;;;;;;;;11.00;99.90;;;;;;5123862;27;20321;-62
2022/09/27 10:35:20;;;;;;;;;;;10.90;99.90;;;;;;5086580;28;19934;-60
2022/09/27 10:37:52;;;;;;;;;;;10.90;99.90;;;;;;5073499;28;19924;-61
2022/09/27 10:40:29;;;;;;;;;;;10.90;99.90;;;;;;5090874;28;19924;-62
2022/09/27 10:42:59;;;;;;;;;;;10.90;99.90;;;;;;5092264;27;19939;-61
2022/09/27 10:45:44;;;;;;;;;;;10.90;99.90;;;;;;5111409;28;19931;-62
2022/09/27 10:48:22;;;;;;;;;;;10.90;99.90;;;;;;5101910;28;19946;-62
2022/09/27 10:50:58;;;;;;;;;;;10.80;99.90;;;;;;5069044;28;19935;-62
2022/09/27 10:53:43;;;;;;;;;;;10.80;99.90;;;;;;5076635;28;19930;-57
2022/09/27 10:56:22;;;;;;;;;;;10.70;99.90;;;;;;5090753;28;19923;-57
2022/09/27 10:58:50;;;;;;;;;;;10.50;99.90;;;;;;5090426;28;19938;-58
2022/09/27 11:01:19;;;;;;;;;;;10.50;99.90;;;;;;5097037;28;19923;-60
2022/09/27 11:04:27;;;;;;;;;;;10.40;99.90;;;;;;5110877;28;19931;-62
2022/09/27 11:07:12;;;;;;;;;;;10.40;99.90;;;;;;5102626;28;20529;-62
2022/09/27 11:09:47;;;;;;;;;;;10.50;99.90;;;;;;5070530;28;19928;-61
2022/09/27 11:12:19;;;;;;;;;;;10.50;99.90;;;;;;5070875;28;19924;-62
2022/09/27 11:14:54;;;;;;;;;;;10.40;99.90;;;;;;5103173;28;19923;-62
2022/09/27 11:17:41;;;;;;;;;;;10.40;99.90;;;;;;5109475;28;19924;-62
2022/09/27 11:20:27;;;;;;;;;;;10.40;99.90;;;;;;5108813;28;19924;-62
2022/09/27 11:23:13;;;;;;;;;;;10.40;99.90;;;;;;5071538;28;19928;-61
2022/09/27 11:26:00;;;;;;;;;;;10.50;99.90;;;;;;5094969;28;19931;-60
2022/09/27 11:28:39;;;;;;;;;;;10.50;99.90;;;;;;5090458;28;19956;-58
2022/09/27 11:31:19;;;;;;;;;;;10.40;99.90;;;;;;5096045;28;20302;-58
2022/09/27 11:34:02;;;;;;;;;;;10.30;99.90;;;;;;5110775;28;19930;-56
2022/09/27 11:36:52;;;;;;;;;;;10.20;99.90;;;;;;5095328;28;19933;-61
2022/09/27 11:39:27;;;;;;;;;;;10.10;99.90;;;;;;5088058;28;19924;-61
2022/09/27 11:42:15;;;;;;;;;;;9.90;99.90;;;;;;5090581;28;19931;-62
2022/09/27 11:44:43;;;;;;;;;;;9.90;99.90;;;;;;5110240;28;19923;-61
2022/09/27 11:47:30;;;;;;;;;;;9.80;99.90;;;;;;5110741;28;19924;-59
2022/09/27 11:50:17;;;;;;;;;;;9.70;99.90;;;;;;5070047;28;19924;-55
2022/09/27 11:52:48;;;;;;;;;;;9.60;99.90;;;;;;5054281;28;19924;-56
2022/09/27 11:55:24;;;;;;;;;;;9.50;99.90;;;;;;5089732;28;19924;-57
2022/09/27 11:58:01;;;;;;;;;;;9.50;99.90;;;;;;5090358;28;19930;-55
2022/09/27 12:00:46;;;;;;;;;;;9.40;99.90;;;;;;5090690;28;20284;-56
2022/09/27 12:03:25;;;;;;;;;;;9.40;99.90;;;;;;5093325;28;19930;-56
2022/09/27 12:06:01;;;;;;;;;;;9.40;99.90;;;;;;5110507;27;20313;-62
2022/09/27 12:08:46;;;;;;;;;;;9.40;99.90;;;;;;5085265;28;19930;-61
2022/09/27 12:11:23;;;;;;;;;;;9.40;99.90;;;;;;5111911;28;19927;-59
2022/09/27 12:13:56;;;;;;;;;;;9.40;99.90;;;;;;5101204;27;20294;-62
2022/09/27 12:16:24;;;;;;;;;;;9.40;99.90;;;;;;5114056;27;19930;-62
2022/09/27 12:18:52;;;;;;;;;;;9.40;99.90;;;;;;5117533;27;19923;-61
2022/09/27 12:21:41;;;;;;;;;;;9.40;99.90;;;;;;5105336;28;19924;-59
2022/09/27 12:24:14;;;;;;;;;;;9.30;99.90;;;;;;5083471;28;19931;-62
2022/09/27 12:26:53;;;;;;;;;;;9.30;99.90;;;;;;5093427;28;19924;-60
2022/09/27 12:29:31;;;;;;;;;;;9.30;99.90;;;;;;5111393;27;19934;-58
2022/09/27 12:31:58;;;;;;;;;;;9.40;99.90;;;;;;5096684;27;19923;-61
2022/09/27 12:34:32;;;;;;;;;;;9.40;99.90;;;;;;5113371;27;19942;-59
2022/09/27 12:37:09;;;;;;;;;;;9.50;99.90;;;;;;5098471;28;19924;-62
2022/09/27 12:39:46;;;;;;;;;;;9.50;99.90;;;;;;5113501;27;19927;-61
2022/09/27 12:42:24;;;;;;;;;;;9.60;99.90;;;;;;5113799;27;19930;-60
2022/09/27 12:44:58;;;;;;;;;;;9.70;99.90;;;;;;5112558;27;20286;-60
2022/09/27 12:47:39;;;;;;;;;;;10.00;99.90;;;;;;5111790;27;19935;-60
2022/09/27 12:50:33;;;;;;;;;;;10.20;99.90;;;;;;5093080;28;19928;-59
2022/09/27 12:53:11;;;;;;;;;;;10.20;99.90;;;;;;5078117;28;19924;-61
2022/09/27 12:55:45;;;;;;;;;;;10.20;99.90;;;;;;5092809;28;19939;-59
2022/09/27 12:58:13;;;;;;;;;;;10.10;99.90;;;;;;5092689;28;19935;-58
2022/09/27 13:00:50;;;;;;;;;;;10.00;99.90;;;;;;5111969;27;19927;-57
2022/09/27 13:03:18;;;;;;;;;;;10.00;99.90;;;;;;5128207;27;19924;-60
2022/09/27 13:06:19;;;;;;;;;;;10.00;99.90;;;;;;5092759;28;19924;-62
2022/09/27 13:08:57;;;;;;;;;;;10.00;99.90;;;;;;5105941;28;19924;-62
2022/09/27 13:11:51;;;;;;;;;;;10.00;99.90;;;;;;5106126;28;19924;-63
2022/09/27 13:14:32;;;;;;;;;;;10.00;99.90;;;;;;5082667;28;20391;-61
2022/09/27 13:17:00;;;;;;;;;;;10.10;99.90;;;;;;5090424;28;20411;-60
2022/09/27 13:19:34;;;;;;;;;;;10.30;99.90;;;;;;5092043;28;19924;-56
2022/09/27 13:22:03;;;;;;;;;;;10.60;99.90;;;;;;5087639;28;20307;-60
2022/09/27 13:24:47;;;;;;;;;;;10.70;99.90;;;;;;5087036;28;19924;-62
2022/09/27 13:27:33;;;;;;;;;;;10.70;99.90;;;;;;5110393;28;19931;-60
2022/09/27 13:30:06;;;;;;;;;;;10.60;99.90;;;;;;5092152;28;20136;-59
2022/09/27 13:32:35;;;;;;;;;;;10.50;99.90;;;;;;5108901;27;20429;-59
2022/09/27 13:35:29;;;;;;;;;;;10.40;99.90;;;;;;5130548;27;19923;-57
2022/09/27 13:38:04;;;;;;;;;;;10.30;99.90;;;;;;5094391;28;19924;-62
2022/09/27 13:40:41;;;;;;;;;;;10.40;99.90;;;;;;5092076;28;19924;-60
2022/09/27 13:43:16;;;;;;;;;;;10.60;99.90;;;;;;5093821;27;19924;-63
2022/09/27 13:46:08;;;;;;;;;;;11.20;99.90;;;;;;5112314;27;19930;-63
2022/09/27 13:48:50;;;;;;;;;;;11.70;99.90;;;;;;5099745;28;19924;-62
2022/09/27 13:51:40;;;;;;;;;;;11.90;99.90;;;;;;5091634;28;19930;-57
2022/09/27 13:54:27;;;;;;;;;;;11.80;99.90;;;;;;5090913;28;19927;-61
2022/09/27 13:56:55;;;;;;;;;;;11.50;99.90;;;;;;5108923;28;19924;-60
2022/09/27 13:59:41;;;;;;;;;;;11.00;99.90;;;;;;5091699;28;19924;-60
2022/09/27 14:02:48;;;;;;;;;;;10.80;99.90;;;;;;5108004;27;19931;-60
2022/09/27 14:05:19;;;;;;;;;;;10.50;99.90;;;;;;5104475;28;20016;-62
2022/09/27 14:07:48;;;;;;;;;;;10.40;99.90;;;;;;5088023;28;19924;-62
2022/09/27 14:10:19;;;;;;;;;;;10.40;99.90;;;;;;5088222;28;19931;-60
2022/09/27 14:12:47;;;;;;;;;;;10.40;99.90;;;;;;5088016;28;19928;-62
2022/09/27 14:15:32;;;;;;;;;;;10.50;99.90;;;;;;5090722;28;19931;-58
2022/09/27 14:18:04;;;;;;;;;;;10.50;99.90;;;;;;5091118;28;20379;-56
2022/09/27 14:20:37;;;;;;;;;;;10.50;99.90;;;;;;5091213;28;19931;-56
2022/09/27 14:23:14;;;;;;;;;;;10.50;99.90;;;;;;5083178;28;20303;-61
2022/09/27 14:25:49;;;;;;;;;;;10.40;99.90;;;;;;5130120;27;19927;-58
2022/09/27 14:28:20;;;;;;;;;;;10.30;99.90;;;;;;5101946;28;19924;-56
2022/09/27 14:31:18;;;;;;;;;;;10.20;99.90;;;;;;5094877;27;20436;-56
2022/09/27 14:34:05;;;;;;;;;;;10.10;99.90;;;;;;5129773;27;20442;-56
2022/09/27 14:39:22;;;;;;;;;;;10.00;99.90;;;;;;5108513;28;19935;-59
2022/09/27 14:41:51;;;;;;;;;;;10.00;99.90;;;;;;5111627;27;19931;-62
2022/09/27 14:44:19;;;;;;;;;;;10.10;99.90;;;;;;5129562;27;19923;-63
2022/09/27 14:47:08;;;;;;;;;;;10.30;99.90;;;;;;5129987;27;20326;-59
2022/09/27 14:49:44;;;;;;;;;;;10.40;99.90;;;;;;5109387;28;19931;-58
2022/09/27 14:52:16;;;;;;;;;;;10.60;99.90;;;;;;5108723;28;20374;-62
2022/09/27 14:54:53;;;;;;;;;;;10.70;99.90;;;;;;5116950;28;19924;-58
2022/09/27 14:57:21;;;;;;;;;;;10.80;99.90;;;;;;5128286;28;19930;-56
2022/09/27 14:59:48;;;;;;;;;;;11.00;99.90;;;;;;5109013;28;19923;-59
2022/09/27 15:02:18;;;;;;;;;;;11.20;99.90;;;;;;5123257;28;19927;-56
2022/09/27 15:04:47;;;;;;;;;;;11.30;99.90;;;;;;5114864;28;19924;-58
2022/09/27 15:07:15;;;;;;;;;;;11.40;99.90;;;;;;5109260;28;19924;-62
2022/09/27 15:09:44;;;;;;;;;;;11.50;99.90;;;;;;5087643;28;19969;-62
2022/09/27 15:12:14;;;;;;;;;;;11.50;99.90;;;;;;5088357;28;19927;-62
2022/09/27 15:14:43;;;;;;;;;;;11.40;99.90;;;;;;5097664;28;19934;-62
2022/09/27 15:17:19;;;;;;;;;;;11.20;99.90;;;;;;5111002;28;19934;-62
2022/09/27 15:20:16;;;;;;;;;;;11.00;99.90;;;;;;5094853;28;19931;-61
2022/09/27 15:22:43;;;;;;;;;;;10.90;99.90;;;;;;5084323;28;20291;-60
2022/09/27 15:25:19;;;;;;;;;;;10.70;99.90;;;;;;5069112;28;19939;-58